sensor_id;sensor_type;location;lat;lon;timestamp;pressure;altitude;pressure_sealevel;temperature;humidity
13478;BME280;12598;62.382;17.344;2023-04-08T00:00:51;103033.22;;;18.37;19.46
13478;BME280;12598;62.382;17.344;2023-04-08T00:01:53;103054.28;;;18.43;19.36
13478;BME280;12598;62.382;17.344;2023-04-08T00:02:55;103044.63;;;18.41;19.63
13478;BME280;12598;62.382;17.344;2023-04-08T00:03:57;103050.94;;;18.40;19.46
13478;BME280;12598;62.382;17.344;2023-04-08T00:04:59;103042.91;;;18.40;19.43
13478;BME280;12598;62.382;17.344;2023-04-08T00:06:01;103044.81;;;18.38;19.62
13478;BME280;12598;62.382;17.344;2023-04-08T00:07:04;103040.31;;;18.38;19.53
13478;BME280;12598;62.382;17.344;2023-04-08T00:08:06;103047.50;;;18.38;19.44
13478;BME280;12598;62.382;17.344;2023-04-08T00:09:08;103049.31;;;18.37;19.53
13478;BME280;12598;62.382;17.344;2023-04-08T00:10:10;103053.91;;;18.35;19.46
13478;BME280;12598;62.382;17.344;2023-04-08T00:11:12;103051.22;;;18.35;19.57
13478;BME280;12598;62.382;17.344;2023-04-08T00:12:14;103050.44;;;18.33;19.38
13478;BME280;12598;62.382;17.344;2023-04-08T00:13:16;103044.53;;;18.28;19.66
13478;BME280;12598;62.382;17.344;2023-04-08T00:14:18;103057.66;;;18.33;19.27
13478;BME280;12598;62.382;17.344;2023-04-08T00:15:20;103057.16;;;18.26;19.43
13478;BME280;12598;62.382;17.344;2023-04-08T00:16:22;103054.19;;;18.31;19.36
13478;BME280;12598;62.382;17.344;2023-04-08T00:17:24;103042.06;;;18.24;19.50
13478;BME280;12598;62.382;17.344;2023-04-08T00:18:26;103053.31;;;18.30;19.53
13478;BME280;12598;62.382;17.344;2023-04-08T00:19:28;103052.47;;;18.30;19.81
13478;BME280;12598;62.382;17.344;2023-04-08T00:20:30;103052.56;;;18.28;19.74
13478;BME280;12598;62.382;17.344;2023-04-08T00:21:32;103046.31;;;18.28;19.41
13478;BME280;12598;62.382;17.344;2023-04-08T00:22:34;103050.91;;;18.26;19.77
13478;BME280;12598;62.382;17.344;2023-04-08T00:23:37;103058.00;;;18.27;19.44
13478;BME280;12598;62.382;17.344;2023-04-08T00:24:38;103042.28;;;18.21;19.29
13478;BME280;12598;62.382;17.344;2023-04-08T00:25:41;103052.72;;;18.25;19.59
13478;BME280;12598;62.382;17.344;2023-04-08T00:26:43;103052.72;;;18.25;19.42
13478;BME280;12598;62.382;17.344;2023-04-08T00:27:45;103054.50;;;18.25;19.47
13478;BME280;12598;62.382;17.344;2023-04-08T00:28:47;103053.75;;;18.23;19.42
13478;BME280;12598;62.382;17.344;2023-04-08T00:29:50;103051.94;;;18.23;19.46
13478;BME280;12598;62.382;17.344;2023-04-08T00:30:52;103049.34;;;18.22;19.64
13478;BME280;12598;62.382;17.344;2023-04-08T00:31:54;103052.13;;;18.20;19.68
13478;BME280;12598;62.382;17.344;2023-04-08T00:32:56;103044.94;;;18.21;19.69
13478;BME280;12598;62.382;17.344;2023-04-08T00:33:58;103048.56;;;18.20;19.58
13478;BME280;12598;62.382;17.344;2023-04-08T00:35:00;103039.69;;;18.19;19.67
13478;BME280;12598;62.382;17.344;2023-04-08T00:36:03;103031.09;;;18.14;19.89
13478;BME280;12598;62.382;17.344;2023-04-08T00:37:05;103047.81;;;18.18;19.50
13478;BME280;12598;62.382;17.344;2023-04-08T00:38:07;103038.06;;;18.17;19.51
13478;BME280;12598;62.382;17.344;2023-04-08T00:39:09;103044.38;;;18.16;19.75
13478;BME280;12598;62.382;17.344;2023-04-08T00:40:10;103037.28;;;18.15;19.51
13478;BME280;12598;62.382;17.344;2023-04-08T00:41:13;103037.66;;;18.09;19.39
13478;BME280;12598;62.382;17.344;2023-04-08T00:42:15;103040.34;;;18.09;19.64
13478;BME280;12598;62.382;17.344;2023-04-08T00:43:17;103045.69;;;18.09;19.61
13478;BME280;12598;62.382;17.344;2023-04-08T00:44:21;103038.69;;;18.06;19.36
13478;BME280;12598;62.382;17.344;2023-04-08T00:45:23;103044.66;;;18.11;19.68
13478;BME280;12598;62.382;17.344;2023-04-08T00:46:25;103053.66;;;18.10;19.64
13478;BME280;12598;62.382;17.344;2023-04-08T00:47:27;103048.38;;;18.09;19.52
13478;BME280;12598;62.382;17.344;2023-04-08T00:48:29;103051.06;;;18.09;19.40
13478;BME280;12598;62.382;17.344;2023-04-08T00:49:32;103055.47;;;18.10;19.68
13478;BME280;12598;62.382;17.344;2023-04-08T00:50:33;103057.38;;;18.08;19.52
13478;BME280;12598;62.382;17.344;2023-04-08T00:51:36;103057.38;;;18.08;19.77
13478;BME280;12598;62.382;17.344;2023-04-08T00:52:38;103057.38;;;18.08;19.77
13478;BME280;12598;62.382;17.344;2023-04-08T00:53:40;103046.25;;;18.00;19.61
13478;BME280;12598;62.382;17.344;2023-04-08T00:54:41;103045.50;;;17.98;19.89
13478;BME280;12598;62.382;17.344;2023-04-08T00:55:43;103059.28;;;18.06;19.67
13478;BME280;12598;62.382;17.344;2023-04-08T00:56:46;103058.41;;;18.05;19.35
13478;BME280;12598;62.382;17.344;2023-04-08T00:57:48;103055.81;;;18.04;19.60
13478;BME280;12598;62.382;17.344;2023-04-08T00:58:50;103045.50;;;17.98;19.60
13478;BME280;12598;62.382;17.344;2023-04-08T00:59:55;103059.34;;;18.04;19.87
13478;BME280;12598;62.382;17.344;2023-04-08T01:01:02;103040.97;;;17.98;19.77
13478;BME280;12598;62.382;17.344;2023-04-08T01:02:28;103061.88;;;18.07;19.31
13478;BME280;12598;62.382;17.344;2023-04-08T01:04:05;103059.84;;;18.11;19.77
13478;BME280;12598;62.382;17.344;2023-04-08T01:05:14;103046.66;;;18.08;19.69
13478;BME280;12598;62.382;17.344;2023-04-08T01:06:31;103060.81;;;18.10;19.52
13478;BME280;12598;62.382;17.344;2023-04-08T01:07:51;103062.53;;;18.11;19.67
13478;BME280;12598;62.382;17.344;2023-04-08T01:08:53;103059.97;;;18.09;19.70
13478;BME280;12598;62.382;17.344;2023-04-08T01:09:56;103056.69;;;18.04;18.96
13478;BME280;12598;62.382;17.344;2023-04-08T01:11:01;103052.38;;;18.02;19.59
13478;BME280;12598;62.382;17.344;2023-04-08T01:12:07;103044.03;;;17.92;19.55
13478;BME280;12598;62.382;17.344;2023-04-08T01:13:11;103058.78;;;17.99;19.77
13478;BME280;12598;62.382;17.344;2023-04-08T01:14:22;103053.53;;;17.98;19.67
13478;BME280;12598;62.382;17.344;2023-04-08T01:15:26;103054.47;;;17.97;19.77
13478;BME280;12598;62.382;17.344;2023-04-08T01:16:29;103056.09;;;17.99;19.81
13478;BME280;12598;62.382;17.344;2023-04-08T01:17:32;103054.47;;;17.97;19.81
13478;BME280;12598;62.382;17.344;2023-04-08T01:18:35;103051.03;;;17.95;19.61
13478;BME280;12598;62.382;17.344;2023-04-08T01:19:39;103042.75;;;17.84;19.84
13478;BME280;12598;62.382;17.344;2023-04-08T01:20:43;103034.91;;;17.81;19.48
13478;BME280;12598;62.382;17.344;2023-04-08T01:21:46;103041.81;;;17.85;19.71
13478;BME280;12598;62.382;17.344;2023-04-08T01:24:32;103067.56;;;18.01;19.77
13478;BME280;12598;62.382;17.344;2023-04-08T01:25:37;103062.41;;;17.98;19.63
13478;BME280;12598;62.382;17.344;2023-04-08T01:26:40;103058.09;;;17.96;19.65
13478;BME280;12598;62.382;17.344;2023-04-08T01:27:43;103060.00;;;17.94;19.46
13478;BME280;12598;62.382;17.344;2023-04-08T01:28:45;103059.25;;;17.92;19.68
13478;BME280;12598;62.382;17.344;2023-04-08T01:29:47;103053.97;;;17.90;19.65
13478;BME280;12598;62.382;17.344;2023-04-08T01:30:50;103059.44;;;17.89;19.57
13478;BME280;12598;62.382;17.344;2023-04-08T01:31:54;103057.72;;;17.88;19.96
13478;BME280;12598;62.382;17.344;2023-04-08T01:32:58;103060.38;;;17.88;19.58
13478;BME280;12598;62.382;17.344;2023-04-08T01:34:03;103044.66;;;17.82;19.63
13478;BME280;12598;62.382;17.344;2023-04-08T01:35:08;103055.03;;;17.88;19.88
13478;BME280;12598;62.382;17.344;2023-04-08T01:36:10;103057.72;;;17.88;19.89
13478;BME280;12598;62.382;17.344;2023-04-08T01:37:13;103049.84;;;17.85;19.64
13478;BME280;12598;62.382;17.344;2023-04-08T01:38:19;103049.84;;;17.85;19.76
13478;BME280;12598;62.382;17.344;2023-04-08T01:39:22;103050.63;;;17.87;19.99
13478;BME280;12598;62.382;17.344;2023-04-08T01:40:26;103048.91;;;17.86;19.74
13478;BME280;12598;62.382;17.344;2023-04-08T01:41:28;103051.59;;;17.86;19.93
13478;BME280;12598;62.382;17.344;2023-04-08T01:42:32;103044.47;;;17.85;19.89
13478;BME280;12598;62.382;17.344;2023-04-08T01:43:38;103053.47;;;17.84;19.92
13478;BME280;12598;62.382;17.344;2023-04-08T01:44:41;103055.19;;;17.85;19.69
13478;BME280;12598;62.382;17.344;2023-04-08T01:45:45;103042.28;;;17.78;19.80
13478;BME280;12598;62.382;17.344;2023-04-08T01:46:48;103053.47;;;17.84;19.88
13478;BME280;12598;62.382;17.344;2023-04-08T01:47:51;103061.59;;;17.83;19.94
13478;BME280;12598;62.382;17.344;2023-04-08T01:48:54;103060.72;;;17.82;19.82
13478;BME280;12598;62.382;17.344;2023-04-08T01:49:57;103062.75;;;17.79;19.80
13478;BME280;12598;62.382;17.344;2023-04-08T01:51:01;103059.88;;;17.82;19.92
13478;BME280;12598;62.382;17.344;2023-04-08T01:52:04;103057.19;;;17.82;20.11
13478;BME280;12598;62.382;17.344;2023-04-08T01:53:08;103060.91;;;17.79;19.72
13478;BME280;12598;62.382;17.344;2023-04-08T01:54:10;103057.28;;;17.80;19.70
13478;BME280;12598;62.382;17.344;2023-04-08T01:55:12;103062.63;;;17.80;19.65
13478;BME280;12598;62.382;17.344;2023-04-08T01:56:14;103048.06;;;17.70;19.95
13478;BME280;12598;62.382;17.344;2023-04-08T01:57:22;103064.53;;;17.78;19.96
13478;BME280;12598;62.382;17.344;2023-04-08T01:58:26;103067.13;;;17.80;19.73
13478;BME280;12598;62.382;17.344;2023-04-08T01:59:34;103064.47;;;17.80;20.20
13478;BME280;12598;62.382;17.344;2023-04-08T02:00:38;103066.25;;;17.79;19.79
13478;BME280;12598;62.382;17.344;2023-04-08T02:01:43;103068.94;;;17.79;19.89
13478;BME280;12598;62.382;17.344;2023-04-08T02:02:46;103068.09;;;17.79;19.95
13478;BME280;12598;62.382;17.344;2023-04-08T02:03:50;103063.75;;;17.76;19.74
13478;BME280;12598;62.382;17.344;2023-04-08T02:04:53;103070.94;;;17.76;19.88
13478;BME280;12598;62.382;17.344;2023-04-08T02:05:55;103063.75;;;17.76;19.86
13478;BME280;12598;62.382;17.344;2023-04-08T02:06:57;103070.06;;;17.75;19.64
13478;BME280;12598;62.382;17.344;2023-04-08T02:07:59;103073.63;;;17.76;19.76
13478;BME280;12598;62.382;17.344;2023-04-08T02:09:01;103064.72;;;17.75;19.70
13478;BME280;12598;62.382;17.344;2023-04-08T02:10:05;103070.19;;;17.74;19.84
13478;BME280;12598;62.382;17.344;2023-04-08T02:11:07;103062.16;;;17.74;19.86
13478;BME280;12598;62.382;17.344;2023-04-08T02:12:09;103068.34;;;17.74;19.84
13478;BME280;12598;62.382;17.344;2023-04-08T02:13:11;103066.63;;;17.73;19.73
13478;BME280;12598;62.382;17.344;2023-04-08T02:14:13;103063.94;;;17.73;19.96
13478;BME280;12598;62.382;17.344;2023-04-08T02:15:15;103058.78;;;17.70;19.95
13478;BME280;12598;62.382;17.344;2023-04-08T02:16:30;103062.34;;;17.71;20.02
13478;BME280;12598;62.382;17.344;2023-04-08T02:17:56;103057.47;;;17.77;19.90
13478;BME280;12598;62.382;17.344;2023-04-08T02:19:07;103055.56;;;17.79;19.25
13478;BME280;12598;62.382;17.344;2023-04-08T02:20:16;103058.34;;;17.78;19.65
13478;BME280;12598;62.382;17.344;2023-04-08T02:21:21;103059.38;;;17.75;19.87
13478;BME280;12598;62.382;17.344;2023-04-08T02:23:39;103057.56;;;17.76;19.67
13478;BME280;12598;62.382;17.344;2023-04-08T02:24:42;103044.72;;;17.67;19.68
13478;BME280;12598;62.382;17.344;2023-04-08T02:25:46;103060.50;;;17.71;19.69
13478;BME280;12598;62.382;17.344;2023-04-08T02:26:49;103051.97;;;17.65;19.80
13478;BME280;12598;62.382;17.344;2023-04-08T02:27:55;103057.81;;;17.71;19.79
13478;BME280;12598;62.382;17.344;2023-04-08T02:28:58;103049.91;;;17.70;19.96
13478;BME280;12598;62.382;17.344;2023-04-08T02:30:03;103052.66;;;17.68;19.91
13478;BME280;12598;62.382;17.344;2023-04-08T02:31:09;103051.81;;;17.68;19.96
13478;BME280;12598;62.382;17.344;2023-04-08T02:32:18;103057.31;;;17.65;19.76
13478;BME280;12598;62.382;17.344;2023-04-08T02:33:22;103052.13;;;17.62;19.88
13478;BME280;12598;62.382;17.344;2023-04-08T02:34:26;103058.00;;;17.68;20.01
13478;BME280;12598;62.382;17.344;2023-04-08T02:35:28;103063.47;;;17.67;19.93
13478;BME280;12598;62.382;17.344;2023-04-08T02:36:31;103058.97;;;17.67;19.72
13478;BME280;12598;62.382;17.344;2023-04-08T02:37:37;103056.28;;;17.67;19.71
13478;BME280;12598;62.382;17.344;2023-04-08T02:38:39;103063.53;;;17.65;19.71
13478;BME280;12598;62.382;17.344;2023-04-08T02:39:42;103060.94;;;17.64;20.04
13478;BME280;12598;62.382;17.344;2023-04-08T02:40:45;103070.69;;;17.65;19.70
13478;BME280;12598;62.382;17.344;2023-04-08T02:41:47;103068.88;;;17.65;19.93
13478;BME280;12598;62.382;17.344;2023-04-08T02:42:49;103059.50;;;17.58;19.78
13478;BME280;12598;62.382;17.344;2023-04-08T02:43:51;103070.78;;;17.63;19.69
13478;BME280;12598;62.382;17.344;2023-04-08T02:44:56;103056.81;;;17.58;19.76
13478;BME280;12598;62.382;17.344;2023-04-08T02:45:58;103059.56;;;17.57;19.74
13478;BME280;12598;62.382;17.344;2023-04-08T02:47:04;103069.91;;;17.63;19.78
13478;BME280;12598;62.382;17.344;2023-04-08T02:48:09;103081.50;;;17.63;20.00
13478;BME280;12598;62.382;17.344;2023-04-08T02:49:11;103078.03;;;17.61;19.89
13478;BME280;12598;62.382;17.344;2023-04-08T02:50:13;103073.53;;;17.62;19.69
13478;BME280;12598;62.382;17.344;2023-04-08T02:51:14;103071.81;;;17.61;19.76
13478;BME280;12598;62.382;17.344;2023-04-08T02:52:17;103069.25;;;17.59;19.82
13478;BME280;12598;62.382;17.344;2023-04-08T02:53:19;103073.66;;;17.60;20.00
13478;BME280;12598;62.382;17.344;2023-04-08T02:54:21;103061.59;;;17.53;19.94
13478;BME280;12598;62.382;17.344;2023-04-08T02:55:23;103080.91;;;17.58;19.66
13478;BME280;12598;62.382;17.344;2023-04-08T02:56:25;103080.03;;;17.58;20.06
13478;BME280;12598;62.382;17.344;2023-04-08T02:57:26;103072.88;;;17.58;19.66
13478;BME280;12598;62.382;17.344;2023-04-08T02:58:28;103064.34;;;17.52;19.76
13478;BME280;12598;62.382;17.344;2023-04-08T02:59:31;103067.72;;;17.55;19.97
13478;BME280;12598;62.382;17.344;2023-04-08T03:00:32;103060.44;;;17.57;19.73
13478;BME280;12598;62.382;17.344;2023-04-08T03:01:34;103066.75;;;17.56;20.02
13478;BME280;12598;62.382;17.344;2023-04-08T03:02:36;103064.06;;;17.56;19.95
13478;BME280;12598;62.382;17.344;2023-04-08T03:03:38;103056.22;;;17.53;20.10
13478;BME280;12598;62.382;17.344;2023-04-08T03:04:40;103062.34;;;17.55;19.97
13478;BME280;12598;62.382;17.344;2023-04-08T03:05:42;103050.28;;;17.48;19.83
13478;BME280;12598;62.382;17.344;2023-04-08T03:06:44;103039.66;;;17.47;20.06
13478;BME280;12598;62.382;17.344;2023-04-08T03:07:46;103060.72;;;17.53;19.70
13478;BME280;12598;62.382;17.344;2023-04-08T03:08:48;103057.19;;;17.52;19.74
13478;BME280;12598;62.382;17.344;2023-04-08T03:09:50;103059.84;;;17.52;19.99
13478;BME280;12598;62.382;17.344;2023-04-08T03:10:52;103061.66;;;17.52;20.00
13478;BME280;12598;62.382;17.344;2023-04-08T03:11:54;103065.28;;;17.51;19.99
13478;BME280;12598;62.382;17.344;2023-04-08T03:12:56;103060.81;;;17.51;19.78
13478;BME280;12598;62.382;17.344;2023-04-08T03:13:58;103065.28;;;17.51;19.85
13478;BME280;12598;62.382;17.344;2023-04-08T03:14:59;103062.59;;;17.51;19.72
13478;BME280;12598;62.382;17.344;2023-04-08T03:16:02;103067.00;;;17.52;19.67
13478;BME280;12598;62.382;17.344;2023-04-08T03:17:04;103074.19;;;17.51;19.85
13478;BME280;12598;62.382;17.344;2023-04-08T03:18:06;103076.09;;;17.49;19.79
13478;BME280;12598;62.382;17.344;2023-04-08T03:19:08;103070.63;;;17.51;19.91
13478;BME280;12598;62.382;17.344;2023-04-08T03:20:10;103065.47;;;17.48;19.89
13478;BME280;12598;62.382;17.344;2023-04-08T03:21:12;103058.63;;;17.42;19.99
13478;BME280;12598;62.382;17.344;2023-04-08T03:22:14;103069.97;;;17.47;19.87
13478;BME280;12598;62.382;17.344;2023-04-08T03:23:16;103083.25;;;17.49;19.95
13478;BME280;12598;62.382;17.344;2023-04-08T03:24:17;103078.00;;;17.47;19.77
13478;BME280;12598;62.382;17.344;2023-04-08T03:25:19;103072.53;;;17.49;19.71
13478;BME280;12598;62.382;17.344;2023-04-08T03:26:21;103080.66;;;17.47;19.72
13478;BME280;12598;62.382;17.344;2023-04-08T03:27:23;103083.41;;;17.46;19.71
13478;BME280;12598;62.382;17.344;2023-04-08T03:28:25;103088.69;;;17.47;19.93
13478;BME280;12598;62.382;17.344;2023-04-08T03:29:27;103079.78;;;17.47;19.89
13478;BME280;12598;62.382;17.344;2023-04-08T03:30:29;103078.94;;;17.46;20.08
13478;BME280;12598;62.382;17.344;2023-04-08T03:31:32;103078.94;;;17.46;19.70
13478;BME280;12598;62.382;17.344;2023-04-08T03:32:34;103074.78;;;17.41;19.85
13478;BME280;12598;62.382;17.344;2023-04-08T03:33:35;103088.75;;;17.46;19.66
13478;BME280;12598;62.382;17.344;2023-04-08T03:34:37;103082.56;;;17.45;20.00
13478;BME280;12598;62.382;17.344;2023-04-08T03:35:39;103086.19;;;17.44;19.82
13478;BME280;12598;62.382;17.344;2023-04-08T03:36:41;103082.56;;;17.45;19.77
13478;BME280;12598;62.382;17.344;2023-04-08T03:37:43;103070.28;;;17.41;20.00
13478;BME280;12598;62.382;17.344;2023-04-08T03:38:45;103073.06;;;17.40;19.68
13478;BME280;12598;62.382;17.344;2023-04-08T03:39:47;103083.59;;;17.43;19.77
13478;BME280;12598;62.382;17.344;2023-04-08T03:40:48;103038.53;;;17.20;19.70
13478;BME280;12598;62.382;17.344;2023-04-08T03:41:51;103069.44;;;17.41;19.73
13478;BME280;12598;62.382;17.344;2023-04-08T03:42:53;103081.00;;;17.41;19.74
13478;BME280;12598;62.382;17.344;2023-04-08T03:43:55;103077.47;;;17.41;19.98
13478;BME280;12598;62.382;17.344;2023-04-08T03:44:57;103066.78;;;17.41;19.73
13478;BME280;12598;62.382;17.344;2023-04-08T03:45:59;103070.41;;;17.40;19.82
13478;BME280;12598;62.382;17.344;2023-04-08T03:47:00;103073.06;;;17.40;20.00
13478;BME280;12598;62.382;17.344;2023-04-08T03:48:03;103080.16;;;17.41;20.15
13478;BME280;12598;62.382;17.344;2023-04-08T03:49:05;103066.84;;;17.39;19.91
13478;BME280;12598;62.382;17.344;2023-04-08T03:50:08;103067.72;;;17.40;20.05
13478;BME280;12598;62.382;17.344;2023-04-08T03:51:10;103065.44;;;17.32;19.81
13478;BME280;12598;62.382;17.344;2023-04-08T03:52:12;103079.25;;;17.40;19.50
13478;BME280;12598;62.382;17.344;2023-04-08T03:53:13;103082.88;;;17.39;19.93
13478;BME280;12598;62.382;17.344;2023-04-08T03:54:15;103076.75;;;17.37;19.79
13478;BME280;12598;62.382;17.344;2023-04-08T03:55:17;103071.75;;;17.31;19.79
13478;BME280;12598;62.382;17.344;2023-04-08T03:56:19;103081.16;;;17.38;19.88
13478;BME280;12598;62.382;17.344;2023-04-08T03:57:21;103095.50;;;17.37;19.72
13478;BME280;12598;62.382;17.344;2023-04-08T03:58:23;103088.41;;;17.36;19.90
13478;BME280;12598;62.382;17.344;2023-04-08T03:59:24;103095.50;;;17.37;19.89
13478;BME280;12598;62.382;17.344;2023-04-08T04:00:26;103091.00;;;17.38;19.94
13478;BME280;12598;62.382;17.344;2023-04-08T04:01:28;103087.00;;;17.29;20.22
13478;BME280;12598;62.382;17.344;2023-04-08T04:02:32;103072.88;;;17.27;19.96
13478;BME280;12598;62.382;17.344;2023-04-08T04:03:35;103089.38;;;17.35;19.92
13478;BME280;12598;62.382;17.344;2023-04-08T04:04:37;103084.97;;;17.34;19.93
13478;BME280;12598;62.382;17.344;2023-04-08T04:05:39;103092.03;;;17.35;19.80
13478;BME280;12598;62.382;17.344;2023-04-08T04:06:41;103088.41;;;17.36;19.84
13478;BME280;12598;62.382;17.344;2023-04-08T04:07:43;103072.88;;;17.27;19.92
13478;BME280;12598;62.382;17.344;2023-04-08T04:08:45;103090.31;;;17.34;19.99
13478;BME280;12598;62.382;17.344;2023-04-08T04:09:47;103088.59;;;17.33;19.79
13478;BME280;12598;62.382;17.344;2023-04-08T04:10:49;103089.50;;;17.32;20.14
13478;BME280;12598;62.382;17.344;2023-04-08T04:11:52;103093.00;;;17.34;20.01
13478;BME280;12598;62.382;17.344;2023-04-08T04:12:53;103085.06;;;17.33;20.01
13478;BME280;12598;62.382;17.344;2023-04-08T04:13:55;103081.47;;;17.32;19.93
13478;BME280;12598;62.382;17.344;2023-04-08T04:14:57;103084.13;;;17.34;19.81
13478;BME280;12598;62.382;17.344;2023-04-08T04:15:59;103091.34;;;17.32;19.79
13478;BME280;12598;62.382;17.344;2023-04-08T04:17:01;103090.47;;;17.31;19.81
13478;BME280;12598;62.382;17.344;2023-04-08T04:18:03;103086.94;;;17.31;20.14
13478;BME280;12598;62.382;17.344;2023-04-08T04:19:04;103094.09;;;17.30;19.74
13478;BME280;12598;62.382;17.344;2023-04-08T04:20:07;103094.97;;;17.31;20.17
13478;BME280;12598;62.382;17.344;2023-04-08T04:21:09;103094.09;;;17.30;19.96
13478;BME280;12598;62.382;17.344;2023-04-08T04:22:11;103091.41;;;17.30;19.58
13478;BME280;12598;62.382;17.344;2023-04-08T04:23:13;103092.34;;;17.29;19.97
13478;BME280;12598;62.382;17.344;2023-04-08T04:24:14;103084.34;;;17.29;19.77
13478;BME280;12598;62.382;17.344;2023-04-08T04:25:16;103082.88;;;17.24;19.99
13478;BME280;12598;62.382;17.344;2023-04-08T04:26:18;103091.50;;;17.29;19.93
13478;BME280;12598;62.382;17.344;2023-04-08T04:27:20;103085.28;;;17.28;20.09
13478;BME280;12598;62.382;17.344;2023-04-08T04:28:22;103095.97;;;17.28;19.87
13478;BME280;12598;62.382;17.344;2023-04-08T04:29:24;103093.59;;;17.24;19.98
13478;BME280;12598;62.382;17.344;2023-04-08T04:30:25;103093.47;;;17.25;20.06
13478;BME280;12598;62.382;17.344;2023-04-08T04:31:28;103092.53;;;17.26;19.86
13478;BME280;12598;62.382;17.344;2023-04-08T04:32:30;103093.31;;;17.28;19.79
13478;BME280;12598;62.382;17.344;2023-04-08T04:33:32;103095.13;;;17.28;20.14
13478;BME280;12598;62.382;17.344;2023-04-08T04:34:34;103097.88;;;17.26;19.97
13478;BME280;12598;62.382;17.344;2023-04-08T04:35:36;103097.81;;;17.28;19.79
13478;BME280;12598;62.382;17.344;2023-04-08T04:36:39;103093.59;;;17.24;20.10
13478;BME280;12598;62.382;17.344;2023-04-08T04:37:42;103094.25;;;17.27;20.19
13478;BME280;12598;62.382;17.344;2023-04-08T04:38:44;103091.69;;;17.26;19.83
13478;BME280;12598;62.382;17.344;2023-04-08T04:39:48;103099.59;;;17.27;19.78
13478;BME280;12598;62.382;17.344;2023-04-08T04:40:50;103102.28;;;17.27;20.40
13478;BME280;12598;62.382;17.344;2023-04-08T04:41:52;103103.22;;;17.26;19.88
13478;BME280;12598;62.382;17.344;2023-04-08T04:42:54;103100.56;;;17.26;19.95
13478;BME280;12598;62.382;17.344;2023-04-08T04:43:56;103103.22;;;17.26;20.08
13478;BME280;12598;62.382;17.344;2023-04-08T04:44:58;103093.47;;;17.25;20.14
13478;BME280;12598;62.382;17.344;2023-04-08T04:46:00;103094.44;;;17.24;19.89
13478;BME280;12598;62.382;17.344;2023-04-08T04:47:02;103090.81;;;17.25;20.33
13478;BME280;12598;62.382;17.344;2023-04-08T04:48:05;103095.31;;;17.25;19.73
13478;BME280;12598;62.382;17.344;2023-04-08T04:49:07;103089.97;;;17.25;20.09
13478;BME280;12598;62.382;17.344;2023-04-08T04:50:09;103098.84;;;17.25;19.72
13478;BME280;12598;62.382;17.344;2023-04-08T04:51:10;103097.03;;;17.26;19.80
13478;BME280;12598;62.382;17.344;2023-04-08T04:52:12;103083.31;;;17.16;19.90
13478;BME280;12598;62.382;17.344;2023-04-08T04:53:14;103094.44;;;17.24;20.02
13478;BME280;12598;62.382;17.344;2023-04-08T04:54:16;103089.09;;;17.24;19.92
13478;BME280;12598;62.382;17.344;2023-04-08T04:55:18;103091.69;;;17.26;19.73
13478;BME280;12598;62.382;17.344;2023-04-08T04:56:20;103089.09;;;17.24;19.93
13478;BME280;12598;62.382;17.344;2023-04-08T04:57:22;103076.13;;;17.17;19.79
13478;BME280;12598;62.382;17.344;2023-04-08T04:58:24;103092.72;;;17.23;19.95
13478;BME280;12598;62.382;17.344;2023-04-08T04:59:26;103088.25;;;17.24;19.98
13478;BME280;12598;62.382;17.344;2023-04-08T05:00:28;103091.75;;;17.24;19.75
13478;BME280;12598;62.382;17.344;2023-04-08T05:01:30;103084.09;;;17.18;19.85
13478;BME280;12598;62.382;17.344;2023-04-08T05:02:32;103092.72;;;17.23;19.90
13478;BME280;12598;62.382;17.344;2023-04-08T05:03:34;103090.97;;;17.22;20.08
13478;BME280;12598;62.382;17.344;2023-04-08T05:04:36;103092.72;;;17.23;19.98
13478;BME280;12598;62.382;17.344;2023-04-08T05:05:38;103093.59;;;17.24;20.20
13478;BME280;12598;62.382;17.344;2023-04-08T05:06:40;103096.25;;;17.24;20.09
13478;BME280;12598;62.382;17.344;2023-04-08T05:07:41;103093.66;;;17.22;20.07
13478;BME280;12598;62.382;17.344;2023-04-08T05:08:43;103069.41;;;17.10;20.04
13478;BME280;12598;62.382;17.344;2023-04-08T05:09:45;103102.56;;;17.23;19.85
13478;BME280;12598;62.382;17.344;2023-04-08T05:10:47;103098.06;;;17.23;19.99
13478;BME280;12598;62.382;17.344;2023-04-08T05:11:51;103095.31;;;17.25;20.11
13478;BME280;12598;62.382;17.344;2023-04-08T05:12:53;103093.59;;;17.24;20.20
13478;BME280;12598;62.382;17.344;2023-04-08T05:13:55;103106.94;;;17.24;19.97
13478;BME280;12598;62.382;17.344;2023-04-08T05:14:57;103103.41;;;17.23;20.17
13478;BME280;12598;62.382;17.344;2023-04-08T05:16:00;103095.31;;;17.25;19.90
13478;BME280;12598;62.382;17.344;2023-04-08T05:17:01;103105.13;;;17.24;19.95
13478;BME280;12598;62.382;17.344;2023-04-08T05:18:03;103096.16;;;17.25;20.00
13478;BME280;12598;62.382;17.344;2023-04-08T05:19:06;103091.69;;;17.26;20.24
13478;BME280;12598;62.382;17.344;2023-04-08T05:20:08;103099.78;;;17.24;20.04
13478;BME280;12598;62.382;17.344;2023-04-08T05:21:10;103100.66;;;17.25;20.05
13478;BME280;12598;62.382;17.344;2023-04-08T05:22:12;103098.13;;;17.22;19.95
13478;BME280;12598;62.382;17.344;2023-04-08T05:23:14;103081.47;;;17.17;20.24
13478;BME280;12598;62.382;17.344;2023-04-08T05:24:16;103096.16;;;17.25;20.06
13478;BME280;12598;62.382;17.344;2023-04-08T05:25:18;103094.34;;;17.26;20.07
13478;BME280;12598;62.382;17.344;2023-04-08T05:26:20;103100.78;;;17.22;20.16
13478;BME280;12598;62.382;17.344;2023-04-08T05:27:22;103093.72;;;17.21;20.29
13478;BME280;12598;62.382;17.344;2023-04-08T05:28:24;103108.56;;;17.26;20.05